sensor_id;sensor_type;location;lat;lon;timestamp;P1;durP1;ratioP1;P2;durP2;ratioP2
6013;SDS011;3035;49.928;8.410;2023-08-01T00:01:16;13.67;;;4.30;;
6013;SDS011;3035;49.928;8.410;2023-08-01T00:03:44;19.20;;;4.70;;
6013;SDS011;3035;49.928;8.410;2023-08-01T00:06:12;10.63;;;4.13;;
6013;SDS011;3035;49.928;8.410;2023-08-01T00:08:40;9.00;;;4.10;;
6013;SDS011;3035;49.928;8.410;2023-08-01T00:11:09;10.37;;;4.20;;
6013;SDS011;3035;49.928;8.410;2023-08-01T00:13:38;13.83;;;4.97;;
6013;SDS011;3035;49.928;8.410;2023-08-01T00:16:06;10.13;;;4.70;;
6013;SDS011;3035;49.928;8.410;2023-08-01T00:18:34;7.90;;;4.20;;
6013;SDS011;3035;49.928;8.410;2023-08-01T00:21:03;8.53;;;4.63;;
6013;SDS011;3035;49.928;8.410;2023-08-01T00:23:31;10.47;;;4.50;;
6013;SDS011;3035;49.928;8.410;2023-08-01T00:25:59;12.20;;;5.43;;
6013;SDS011;3035;49.928;8.410;2023-08-01T00:28:29;13.87;;;5.20;;
6013;SDS011;3035;49.928;8.410;2023-08-01T00:33:34;14.10;;;4.07;;
6013;SDS011;3035;49.928;8.410;2023-08-01T00:36:02;17.93;;;4.50;;
6013;SDS011;3035;49.928;8.410;2023-08-01T00:38:30;20.70;;;4.60;;
6013;SDS011;3035;49.928;8.410;2023-08-01T00:40:58;19.87;;;4.87;;
6013;SDS011;3035;49.928;8.410;2023-08-01T00:43:26;9.43;;;4.10;;
6013;SDS011;3035;49.928;8.410;2023-08-01T00:45:55;9.40;;;4.20;;
6013;SDS011;3035;49.928;8.410;2023-08-01T00:48:23;10.13;;;4.73;;
6013;SDS011;3035;49.928;8.410;2023-08-01T00:50:51;9.63;;;4.33;;
6013;SDS011;3035;49.928;8.410;2023-08-01T00:53:19;12.87;;;4.33;;
6013;SDS011;3035;49.928;8.410;2023-08-01T00:55:47;10.47;;;4.27;;
6013;SDS011;3035;49.928;8.410;2023-08-01T00:58:15;13.07;;;4.30;;
6013;SDS011;3035;49.928;8.410;2023-08-01T01:00:45;7.60;;;4.07;;
6013;SDS011;3035;49.928;8.410;2023-08-01T01:03:12;14.00;;;5.37;;
6013;SDS011;3035;49.928;8.410;2023-08-01T01:05:43;14.37;;;4.93;;
6013;SDS011;3035;49.928;8.410;2023-08-01T01:08:08;6.97;;;4.00;;
6013;SDS011;3035;49.928;8.410;2023-08-01T01:10:36;17.13;;;4.80;;
6013;SDS011;3035;49.928;8.410;2023-08-01T01:13:05;17.73;;;4.70;;
6013;SDS011;3035;49.928;8.410;2023-08-01T01:15:33;13.00;;;4.83;;
6013;SDS011;3035;49.928;8.410;2023-08-01T01:18:01;10.10;;;5.37;;
6013;SDS011;3035;49.928;8.410;2023-08-01T01:20:33;14.23;;;4.10;;
6013;SDS011;3035;49.928;8.410;2023-08-01T01:23:03;7.40;;;4.00;;
6013;SDS011;3035;49.928;8.410;2023-08-01T01:25:31;9.77;;;4.53;;
6013;SDS011;3035;49.928;8.410;2023-08-01T01:27:59;13.00;;;4.63;;
6013;SDS011;3035;49.928;8.410;2023-08-01T01:30:27;12.67;;;4.93;;
6013;SDS011;3035;49.928;8.410;2023-08-01T01:32:55;13.77;;;5.20;;
6013;SDS011;3035;49.928;8.410;2023-08-01T01:35:23;12.83;;;5.17;;
6013;SDS011;3035;49.928;8.410;2023-08-01T01:37:52;9.50;;;4.53;;
6013;SDS011;3035;49.928;8.410;2023-08-01T01:40:20;8.37;;;4.20;;
6013;SDS011;3035;49.928;8.410;2023-08-01T01:42:48;12.30;;;5.70;;
6013;SDS011;3035;49.928;8.410;2023-08-01T01:45:16;12.40;;;4.67;;
6013;SDS011;3035;49.928;8.410;2023-08-01T01:47:44;9.93;;;5.17;;
6013;SDS011;3035;49.928;8.410;2023-08-01T01:50:13;12.07;;;4.73;;
6013;SDS011;3035;49.928;8.410;2023-08-01T01:52:41;7.23;;;4.07;;
6013;SDS011;3035;49.928;8.410;2023-08-01T01:55:09;8.50;;;4.13;;
6013;SDS011;3035;49.928;8.410;2023-08-01T01:57:37;8.63;;;4.10;;
6013;SDS011;3035;49.928;8.410;2023-08-01T02:00:06;10.47;;;4.73;;
6013;SDS011;3035;49.928;8.410;2023-08-01T02:02:36;7.17;;;3.97;;
6013;SDS011;3035;49.928;8.410;2023-08-01T02:05:04;12.83;;;4.87;;
6013;SDS011;3035;49.928;8.410;2023-08-01T02:07:32;6.60;;;4.47;;
6013;SDS011;3035;49.928;8.410;2023-08-01T02:10:01;6.90;;;4.27;;
6013;SDS011;3035;49.928;8.410;2023-08-01T02:12:29;9.30;;;4.80;;
6013;SDS011;3035;49.928;8.410;2023-08-01T02:14:57;10.53;;;4.20;;
6013;SDS011;3035;49.928;8.410;2023-08-01T02:17:25;12.80;;;4.13;;
6013;SDS011;3035;49.928;8.410;2023-08-01T02:19:53;7.57;;;4.33;;
6013;SDS011;3035;49.928;8.410;2023-08-01T02:22:22;7.10;;;4.20;;
6013;SDS011;3035;49.928;8.410;2023-08-01T02:24:50;10.20;;;4.20;;
6013;SDS011;3035;49.928;8.410;2023-08-01T02:27:18;11.63;;;4.37;;
6013;SDS011;3035;49.928;8.410;2023-08-01T02:29:46;22.07;;;4.40;;
6013;SDS011;3035;49.928;8.410;2023-08-01T02:32:14;6.90;;;4.50;;
6013;SDS011;3035;49.928;8.410;2023-08-01T02:34:43;10.53;;;4.80;;
6013;SDS011;3035;49.928;8.410;2023-08-01T02:37:11;12.27;;;4.67;;
6013;SDS011;3035;49.928;8.410;2023-08-01T02:39:39;9.00;;;5.00;;
6013;SDS011;3035;49.928;8.410;2023-08-01T02:42:07;12.50;;;5.10;;
6013;SDS011;3035;49.928;8.410;2023-08-01T02:44:35;20.83;;;4.50;;
6013;SDS011;3035;49.928;8.410;2023-08-01T02:47:04;14.60;;;5.23;;
6013;SDS011;3035;49.928;8.410;2023-08-01T02:49:32;15.10;;;3.47;;
6013;SDS011;3035;49.928;8.410;2023-08-01T02:52:00;7.30;;;4.83;;
6013;SDS011;3035;49.928;8.410;2023-08-01T02:54:28;12.73;;;4.30;;
6013;SDS011;3035;49.928;8.410;2023-08-01T02:56:56;19.70;;;4.30;;
6013;SDS011;3035;49.928;8.410;2023-08-01T02:59:25;12.23;;;4.53;;
6013;SDS011;3035;49.928;8.410;2023-08-01T03:01:53;7.50;;;3.60;;
6013;SDS011;3035;49.928;8.410;2023-08-01T03:04:21;7.57;;;4.43;;
6013;SDS011;3035;49.928;8.410;2023-08-01T03:06:49;7.00;;;3.60;;
6013;SDS011;3035;49.928;8.410;2023-08-01T03:09:17;7.93;;;4.23;;
6013;SDS011;3035;49.928;8.410;2023-08-01T03:11:46;7.03;;;4.00;;
6013;SDS011;3035;49.928;8.410;2023-08-01T03:14:15;6.83;;;3.50;;
6013;SDS011;3035;49.928;8.410;2023-08-01T03:16:43;9.50;;;4.13;;
6013;SDS011;3035;49.928;8.410;2023-08-01T03:19:11;9.20;;;4.00;;
6013;SDS011;3035;49.928;8.410;2023-08-01T03:21:39;5.00;;;3.03;;
6013;SDS011;3035;49.928;8.410;2023-08-01T03:24:07;15.97;;;3.50;;
6013;SDS011;3035;49.928;8.410;2023-08-01T03:26:36;8.30;;;3.47;;
6013;SDS011;3035;49.928;8.410;2023-08-01T03:29:05;5.47;;;3.33;;
6013;SDS011;3035;49.928;8.410;2023-08-01T03:31:33;4.17;;;2.70;;
6013;SDS011;3035;49.928;8.410;2023-08-01T03:34:01;6.50;;;3.20;;
6013;SDS011;3035;49.928;8.410;2023-08-01T03:36:30;15.43;;;3.63;;
6013;SDS011;3035;49.928;8.410;2023-08-01T03:38:58;5.67;;;3.20;;
6013;SDS011;3035;49.928;8.410;2023-08-01T03:41:26;8.30;;;3.57;;
6013;SDS011;3035;49.928;8.410;2023-08-01T03:43:54;10.80;;;3.30;;
6013;SDS011;3035;49.928;8.410;2023-08-01T03:46:22;8.47;;;3.00;;
6013;SDS011;3035;49.928;8.410;2023-08-01T03:48:51;7.77;;;2.90;;
6013;SDS011;3035;49.928;8.410;2023-08-01T03:51:19;5.90;;;2.97;;
6013;SDS011;3035;49.928;8.410;2023-08-01T03:53:47;6.90;;;3.70;;
6013;SDS011;3035;49.928;8.410;2023-08-01T03:56:15;10.27;;;3.00;;
6013;SDS011;3035;49.928;8.410;2023-08-01T03:58:43;5.77;;;3.20;;
6013;SDS011;3035;49.928;8.410;2023-08-01T04:01:12;7.27;;;3.10;;
6013;SDS011;3035;49.928;8.410;2023-08-01T04:03:40;8.37;;;3.70;;
6013;SDS011;3035;49.928;8.410;2023-08-01T04:06:08;7.73;;;3.60;;
6013;SDS011;3035;49.928;8.410;2023-08-01T04:08:37;15.57;;;3.20;;
6013;SDS011;3035;49.928;8.410;2023-08-01T04:11:05;4.83;;;3.23;;
6013;SDS011;3035;49.928;8.410;2023-08-01T04:13:34;4.90;;;3.30;;
6013;SDS011;3035;49.928;8.410;2023-08-01T04:16:02;16.20;;;3.43;;
6013;SDS011;3035;49.928;8.410;2023-08-01T04:18:30;5.07;;;3.70;;
6013;SDS011;3035;49.928;8.410;2023-08-01T04:20:58;5.73;;;3.00;;
6013;SDS011;3035;49.928;8.410;2023-08-01T04:23:26;8.93;;;3.50;;
6013;SDS011;3035;49.928;8.410;2023-08-01T04:25:55;9.83;;;3.80;;
6013;SDS011;3035;49.928;8.410;2023-08-01T04:28:23;5.40;;;3.00;;
6013;SDS011;3035;49.928;8.410;2023-08-01T04:30:51;8.80;;;3.10;;
6013;SDS011;3035;49.928;8.410;2023-08-01T04:33:19;11.40;;;4.43;;
6013;SDS011;3035;49.928;8.410;2023-08-01T04:35:47;6.10;;;3.47;;
6013;SDS011;3035;49.928;8.410;2023-08-01T04:38:16;9.47;;;3.63;;
6013;SDS011;3035;49.928;8.410;2023-08-01T04:40:44;5.57;;;3.67;;
6013;SDS011;3035;49.928;8.410;2023-08-01T04:43:13;6.30;;;3.30;;
6013;SDS011;3035;49.928;8.410;2023-08-01T04:45:40;5.30;;;3.40;;
6013;SDS011;3035;49.928;8.410;2023-08-01T04:48:08;4.30;;;3.20;;
6013;SDS011;3035;49.928;8.410;2023-08-01T04:50:37;11.93;;;3.30;;
6013;SDS011;3035;49.928;8.410;2023-08-01T04:53:05;7.67;;;3.10;;
6013;SDS011;3035;49.928;8.410;2023-08-01T04:55:33;9.70;;;2.77;;
6013;SDS011;3035;49.928;8.410;2023-08-01T04:58:01;6.70;;;2.80;;
6013;SDS011;3035;49.928;8.410;2023-08-01T05:00:29;6.23;;;3.30;;
6013;SDS011;3035;49.928;8.410;2023-08-01T05:02:58;9.37;;;3.43;;
6013;SDS011;3035;49.928;8.410;2023-08-01T05:05:26;7.40;;;3.50;;
6013;SDS011;3035;49.928;8.410;2023-08-01T05:07:54;9.57;;;3.73;;
6013;SDS011;3035;49.928;8.410;2023-08-01T05:10:22;10.77;;;3.40;;
6013;SDS011;3035;49.928;8.410;2023-08-01T05:12:50;4.13;;;2.83;;
6013;SDS011;3035;49.928;8.410;2023-08-01T05:15:19;9.53;;;3.30;;
6013;SDS011;3035;49.928;8.410;2023-08-01T05:17:47;10.73;;;2.93;;
6013;SDS011;3035;49.928;8.410;2023-08-01T05:20:15;5.23;;;2.50;;
6013;SDS011;3035;49.928;8.410;2023-08-01T05:22:43;4.63;;;2.97;;
6013;SDS011;3035;49.928;8.410;2023-08-01T05:25:12;10.23;;;3.43;;
6013;SDS011;3035;49.928;8.410;2023-08-01T05:27:40;3.97;;;3.07;;
6013;SDS011;3035;49.928;8.410;2023-08-01T05:30:08;6.23;;;3.57;;
6013;SDS011;3035;49.928;8.410;2023-08-01T05:32:37;6.33;;;3.27;;
6013;SDS011;3035;49.928;8.410;2023-08-01T05:35:06;3.57;;;2.57;;
6013;SDS011;3035;49.928;8.410;2023-08-01T05:37:35;4.33;;;3.10;;
6013;SDS011;3035;49.928;8.410;2023-08-01T05:40:04;9.17;;;2.77;;
6013;SDS011;3035;49.928;8.410;2023-08-01T05:42:32;7.33;;;3.10;;
6013;SDS011;3035;49.928;8.410;2023-08-01T05:45:00;6.27;;;3.30;;
6013;SDS011;3035;49.928;8.410;2023-08-01T05:47:28;4.73;;;2.97;;
6013;SDS011;3035;49.928;8.410;2023-08-01T05:49:56;4.57;;;2.80;;
6013;SDS011;3035;49.928;8.410;2023-08-01T05:52:24;5.50;;;3.27;;
6013;SDS011;3035;49.928;8.410;2023-08-01T05:54:53;7.40;;;3.17;;
6013;SDS011;3035;49.928;8.410;2023-08-01T05:57:21;5.80;;;3.27;;
6013;SDS011;3035;49.928;8.410;2023-08-01T05:59:49;6.43;;;3.00;;
6013;SDS011;3035;49.928;8.410;2023-08-01T06:02:17;5.17;;;2.67;;
6013;SDS011;3035;49.928;8.410;2023-08-01T06:04:45;6.23;;;3.47;;
6013;SDS011;3035;49.928;8.410;2023-08-01T06:07:14;4.40;;;3.03;;
6013;SDS011;3035;49.928;8.410;2023-08-01T06:09:42;5.63;;;2.90;;
6013;SDS011;3035;49.928;8.410;2023-08-01T06:12:10;3.63;;;2.90;;
6013;SDS011;3035;49.928;8.410;2023-08-01T06:14:38;4.00;;;2.70;;
6013;SDS011;3035;49.928;8.410;2023-08-01T06:17:07;3.43;;;2.90;;
6013;SDS011;3035;49.928;8.410;2023-08-01T06:19:35;10.40;;;3.43;;
6013;SDS011;3035;49.928;8.410;2023-08-01T06:22:03;8.10;;;4.00;;
6013;SDS011;3035;49.928;8.410;2023-08-01T06:24:32;5.80;;;3.07;;
6013;SDS011;3035;49.928;8.410;2023-08-01T06:27:00;5.30;;;3.10;;
6013;SDS011;3035;49.928;8.410;2023-08-01T06:29:28;7.57;;;3.17;;
6013;SDS011;3035;49.928;8.410;2023-08-01T06:31:56;3.77;;;2.80;;
6013;SDS011;3035;49.928;8.410;2023-08-01T06:34:24;3.87;;;2.83;;
6013;SDS011;3035;49.928;8.410;2023-08-01T06:36:53;4.00;;;2.80;;
6013;SDS011;3035;49.928;8.410;2023-08-01T06:39:21;3.67;;;2.87;;
6013;SDS011;3035;49.928;8.410;2023-08-01T06:41:49;3.00;;;2.40;;
6013;SDS011;3035;49.928;8.410;2023-08-01T06:44:17;3.50;;;2.70;;
6013;SDS011;3035;49.928;8.410;2023-08-01T06:46:46;4.47;;;3.27;;
6013;SDS011;3035;49.928;8.410;2023-08-01T06:49:14;4.30;;;2.03;;
6013;SDS011;3035;49.928;8.410;2023-08-01T06:51:42;10.33;;;2.00;;
6013;SDS011;3035;49.928;8.410;2023-08-01T06:54:10;10.40;;;2.40;;
6013;SDS011;3035;49.928;8.410;2023-08-01T06:56:39;1.50;;;1.20;;
6013;SDS011;3035;49.928;8.410;2023-08-01T06:59:08;2.90;;;1.10;;
6013;SDS011;3035;49.928;8.410;2023-08-01T07:01:36;3.23;;;1.30;;
6013;SDS011;3035;49.928;8.410;2023-08-01T07:04:04;1.17;;;0.90;;
6013;SDS011;3035;49.928;8.410;2023-08-01T07:06:32;1.73;;;1.00;;
6013;SDS011;3035;49.928;8.410;2023-08-01T07:09:00;2.80;;;1.23;;
6013;SDS011;3035;49.928;8.410;2023-08-01T07:11:29;1.00;;;0.80;;
6013;SDS011;3035;49.928;8.410;2023-08-01T07:13:57;1.27;;;0.77;;
6013;SDS011;3035;49.928;8.410;2023-08-01T07:16:25;1.23;;;0.80;;
6013;SDS011;3035;49.928;8.410;2023-08-01T07:18:54;1.10;;;0.80;;
6013;SDS011;3035;49.928;8.410;2023-08-01T07:21:21;3.10;;;0.90;;
6013;SDS011;3035;49.928;8.410;2023-08-01T07:23:50;1.23;;;0.87;;
6013;SDS011;3035;49.928;8.410;2023-08-01T07:26:18;1.13;;;0.80;;
6013;SDS011;3035;49.928;8.410;2023-08-01T07:28:46;2.47;;;0.80;;
6013;SDS011;3035;49.928;8.410;2023-08-01T07:31:14;1.00;;;0.70;;
6013;SDS011;3035;49.928;8.410;2023-08-01T07:33:42;1.00;;;0.70;;
6013;SDS011;3035;49.928;8.410;2023-08-01T07:36:11;5.30;;;0.87;;
6013;SDS011;3035;49.928;8.410;2023-08-01T07:38:39;0.93;;;0.70;;
6013;SDS011;3035;49.928;8.410;2023-08-01T07:41:07;1.30;;;0.70;;
6013;SDS011;3035;49.928;8.410;2023-08-01T07:43:36;1.30;;;0.70;;
6013;SDS011;3035;49.928;8.410;2023-08-01T07:46:04;1.40;;;0.70;;
6013;SDS011;3035;49.928;8.410;2023-08-01T07:48:32;1.00;;;0.77;;
6013;SDS011;3035;49.928;8.410;2023-08-01T07:51:00;1.97;;;0.80;;
6013;SDS011;3035;49.928;8.410;2023-08-01T07:53:29;1.30;;;0.80;;
6013;SDS011;3035;49.928;8.410;2023-08-01T07:55:57;1.20;;;1.00;;
6013;SDS011;3035;49.928;8.410;2023-08-01T07:58:25;1.77;;;0.73;;
6013;SDS011;3035;49.928;8.410;2023-08-01T08:00:53;1.17;;;0.80;;
6013;SDS011;3035;49.928;8.410;2023-08-01T08:03:21;1.73;;;0.80;;
6013;SDS011;3035;49.928;8.410;2023-08-01T08:05:50;2.90;;;0.90;;
6013;SDS011;3035;49.928;8.410;2023-08-01T08:08:18;3.17;;;1.10;;
6013;SDS011;3035;49.928;8.410;2023-08-01T08:10:46;5.40;;;1.20;;
6013;SDS011;3035;49.928;8.410;2023-08-01T08:13:14;1.63;;;0.90;;
6013;SDS011;3035;49.928;8.410;2023-08-01T08:15:42;8.00;;;1.40;;
6013;SDS011;3035;49.928;8.410;2023-08-01T08:18:11;3.10;;;1.80;;
6013;SDS011;3035;49.928;8.410;2023-08-01T08:20:41;2.07;;;1.17;;
6013;SDS011;3035;49.928;8.410;2023-08-01T08:23:09;3.70;;;1.33;;
6013;SDS011;3035;49.928;8.410;2023-08-01T08:25:37;1.50;;;0.90;;
6013;SDS011;3035;49.928;8.410;2023-08-01T08:28:05;2.03;;;1.00;;
6013;SDS011;3035;49.928;8.410;2023-08-01T08:30:34;3.47;;;1.00;;
6013;SDS011;3035;49.928;8.410;2023-08-01T08:33:03;1.47;;;1.10;;
6013;SDS011;3035;49.928;8.410;2023-08-01T08:35:30;1.20;;;1.00;;
6013;SDS011;3035;49.928;8.410;2023-08-01T08:37:58;3.27;;;1.27;;
6013;SDS011;3035;49.928;8.410;2023-08-01T08:40:26;2.60;;;1.07;;
6013;SDS011;3035;49.928;8.410;2023-08-01T08:42:54;3.10;;;1.10;;
6013;SDS011;3035;49.928;8.410;2023-08-01T08:45:22;1.80;;;1.30;;
6013;SDS011;3035;49.928;8.410;2023-08-01T08:47:53;1.30;;;1.00;;
6013;SDS011;3035;49.928;8.410;2023-08-01T08:50:21;1.50;;;1.10;;
6013;SDS011;3035;49.928;8.410;2023-08-01T08:52:50;4.50;;;1.33;;
6013;SDS011;3035;49.928;8.410;2023-08-01T08:55:18;2.80;;;1.03;;
6013;SDS011;3035;49.928;8.410;2023-08-01T08:57:46;1.10;;;0.90;;
6013;SDS011;3035;49.928;8.410;2023-08-01T09:00:14;2.17;;;1.30;;
6013;SDS011;3035;49.928;8.410;2023-08-01T09:02:43;1.37;;;1.10;;
6013;SDS011;3035;49.928;8.410;2023-08-01T09:05:11;1.20;;;0.90;;
6013;SDS011;3035;49.928;8.410;2023-08-01T09:07:41;1.00;;;0.90;;
6013;SDS011;3035;49.928;8.410;2023-08-01T09:10:07;3.17;;;1.13;;
6013;SDS011;3035;49.928;8.410;2023-08-01T09:12:35;2.60;;;1.13;;
6013;SDS011;3035;49.928;8.410;2023-08-01T09:15:04;2.47;;;1.27;;
6013;SDS011;3035;49.928;8.410;2023-08-01T09:17:33;2.40;;;1.10;;
6013;SDS011;3035;49.928;8.410;2023-08-01T09:20:05;2.30;;;1.40;;
6013;SDS011;3035;49.928;8.410;2023-08-01T09:25:11;3.73;;;1.10;;
6013;SDS011;3035;49.928;8.410;2023-08-01T09:27:39;2.67;;;1.37;;
6013;SDS011;3035;49.928;8.410;2023-08-01T09:30:07;8.73;;;1.30;;
6013;SDS011;3035;49.928;8.410;2023-08-01T09:32:37;2.13;;;1.10;;
6013;SDS011;3035;49.928;8.410;2023-08-01T09:35:05;1.60;;;1.13;;
6013;SDS011;3035;49.928;8.410;2023-08-01T09:37:38;7.23;;;1.50;;
6013;SDS011;3035;49.928;8.410;2023-08-01T09:40:06;2.60;;;1.20;;
6013;SDS011;3035;49.928;8.410;2023-08-01T09:42:39;2.80;;;1.50;;
6013;SDS011;3035;49.928;8.410;2023-08-01T09:45:22;2.33;;;1.33;;
6013;SDS011;3035;49.928;8.410;2023-08-01T09:47:50;2.30;;;1.10;;
6013;SDS011;3035;49.928;8.410;2023-08-01T09:50:20;4.73;;;1.30;;
6013;SDS011;3035;49.928;8.410;2023-08-01T09:52:48;2.60;;;1.40;;
6013;SDS011;3035;49.928;8.410;2023-08-01T09:55:25;3.63;;;1.20;;
6013;SDS011;3035;49.928;8.410;2023-08-01T09:57:58;3.83;;;1.53;;
6013;SDS011;3035;49.928;8.410;2023-08-01T10:00:27;2.40;;;1.20;;
6013;SDS011;3035;49.928;8.410;2023-08-01T10:02:58;3.63;;;1.23;;
6013;SDS011;3035;49.928;8.410;2023-08-01T10:05:29;1.30;;;1.13;;
6013;SDS011;3035;49.928;8.410;2023-08-01T10:07:59;1.33;;;1.13;;
6013;SDS011;3035;49.928;8.410;2023-08-01T10:10:27;4.50;;;1.30;;
6013;SDS011;3035;49.928;8.410;2023-08-01T10:12:57;1.40;;;1.10;;
6013;SDS011;3035;49.928;8.410;2023-08-01T10:15:25;2.83;;;1.20;;
6013;SDS011;3035;49.928;8.410;2023-08-01T10:17:53;2.70;;;1.53;;
6013;SDS011;3035;49.928;8.410;2023-08-01T10:20:21;4.10;;;1.33;;
6013;SDS011;3035;49.928;8.410;2023-08-01T10:22:49;5.80;;;1.83;;
6013;SDS011;3035;49.928;8.410;2023-08-01T10:25:18;2.80;;;1.40;;
6013;SDS011;3035;49.928;8.410;2023-08-01T10:27:56;3.00;;;1.40;;
6013;SDS011;3035;49.928;8.410;2023-08-01T10:30:14;2.90;;;1.50;;
6013;SDS011;3035;49.928;8.410;2023-08-01T10:32:42;1.93;;;1.20;;
6013;SDS011;3035;49.928;8.410;2023-08-01T10:35:10;3.83;;;1.50;;
6013;SDS011;3035;49.928;8.410;2023-08-01T10:37:40;2.40;;;1.70;;
6013;SDS011;3035;49.928;8.410;2023-08-01T10:40:09;1.70;;;1.30;;
6013;SDS011;3035;49.928;8.410;2023-08-01T10:42:39;5.43;;;1.57;;
6013;SDS011;3035;49.928;8.410;2023-08-01T10:45:07;5.00;;;1.53;;
6013;SDS011;3035;49.928;8.410;2023-08-01T10:47:35;3.00;;;1.70;;
6013;SDS011;3035;49.928;8.410;2023-08-01T10:50:12;1.60;;;1.40;;
6013;SDS011;3035;49.928;8.410;2023-08-01T10:52:32;2.17;;;1.50;;
6013;SDS011;3035;49.928;8.410;2023-08-01T10:55:01;4.00;;;1.80;;
6013;SDS011;3035;49.928;8.410;2023-08-01T10:57:30;2.53;;;1.30;;
6013;SDS011;3035;49.928;8.410;2023-08-01T10:59:58;1.77;;;1.27;;
6013;SDS011;3035;49.928;8.410;2023-08-01T11:02:26;2.80;;;1.40;;
6013;SDS011;3035;49.928;8.410;2023-08-01T11:04:57;3.57;;;1.50;;
6013;SDS011;3035;49.928;8.410;2023-08-01T11:07:26;2.10;;;1.30;;
6013;SDS011;3035;49.928;8.410;2023-08-01T11:12:35;2.87;;;1.80;;
6013;SDS011;3035;49.928;8.410;2023-08-01T11:15:02;5.23;;;1.77;;
6013;SDS011;3035;49.928;8.410;2023-08-01T11:17:31;2.80;;;1.63;;
6013;SDS011;3035;49.928;8.410;2023-08-01T11:20:01;2.07;;;1.33;;
6013;SDS011;3035;49.928;8.410;2023-08-01T11:22:30;2.10;;;1.40;;
6013;SDS011;3035;49.928;8.410;2023-08-01T11:24:58;3.17;;;2.17;;
6013;SDS011;3035;49.928;8.410;2023-08-01T11:27:26;3.47;;;1.80;;
6013;SDS011;3035;49.928;8.410;2023-08-01T11:29:54;2.73;;;2.03;;
6013;SDS011;3035;49.928;8.410;2023-08-01T11:32:32;2.83;;;1.50;;
6013;SDS011;3035;49.928;8.410;2023-08-01T11:34:50;3.20;;;1.60;;
6013;SDS011;3035;49.928;8.410;2023-08-01T11:37:19;2.50;;;1.30;;
6013;SDS011;3035;49.928;8.410;2023-08-01T11:39:47;19.77;;;1.77;;
6013;SDS011;3035;49.928;8.410;2023-08-01T11:42:16;8.83;;;1.50;;
6013;SDS011;3035;49.928;8.410;2023-08-01T11:44:43;2.73;;;1.60;;
6013;SDS011;3035;49.928;8.410;2023-08-01T11:47:12;2.40;;;1.70;;
6013;SDS011;3035;49.928;8.410;2023-08-01T11:49:46;3.03;;;1.47;;
6013;SDS011;3035;49.928;8.410;2023-08-01T11:54:52;3.60;;;1.83;;
6013;SDS011;3035;49.928;8.410;2023-08-01T11:57:21;5.37;;;1.40;;
6013;SDS011;3035;49.928;8.410;2023-08-01T11:59:50;4.07;;;1.50;;
6013;SDS011;3035;49.928;8.410;2023-08-01T12:02:20;8.40;;;1.50;;
6013;SDS011;3035;49.928;8.410;2023-08-01T12:04:52;1.90;;;1.70;;
6013;SDS011;3035;49.928;8.410;2023-08-01T12:07:19;2.60;;;1.77;;
6013;SDS011;3035;49.928;8.410;2023-08-01T12:12:26;3.20;;;1.30;;
6013;SDS011;3035;49.928;8.410;2023-08-01T12:14:54;3.10;;;1.50;;
6013;SDS011;3035;49.928;8.410;2023-08-01T12:17:22;4.37;;;1.40;;
6013;SDS011;3035;49.928;8.410;2023-08-01T12:19:50;3.80;;;1.70;;
6013;SDS011;3035;49.928;8.410;2023-08-01T12:22:18;5.40;;;1.73;;
6013;SDS011;3035;49.928;8.410;2023-08-01T12:24:46;2.70;;;1.40;;
6013;SDS011;3035;49.928;8.410;2023-08-01T12:27:14;3.17;;;1.40;;
6013;SDS011;3035;49.928;8.410;2023-08-01T12:29:43;2.43;;;1.57;;
6013;SDS011;3035;49.928;8.410;2023-08-01T12:32:11;4.40;;;1.80;;
6013;SDS011;3035;49.928;8.410;2023-08-01T12:34:39;3.33;;;1.40;;
6013;SDS011;3035;49.928;8.410;2023-08-01T12:37:07;2.60;;;1.33;;
6013;SDS011;3035;49.928;8.410;2023-08-01T12:39:35;1.40;;;1.27;;
6013;SDS011;3035;49.928;8.410;2023-08-01T12:42:04;5.47;;;1.60;;
6013;SDS011;3035;49.928;8.410;2023-08-01T12:44:33;3.90;;;1.60;;
6013;SDS011;3035;49.928;8.410;2023-08-01T12:47:01;1.93;;;1.40;;
6013;SDS011;3035;49.928;8.410;2023-08-01T12:49:29;4.87;;;1.30;;
6013;SDS011;3035;49.928;8.410;2023-08-01T12:51:57;8.70;;;1.60;;
6013;SDS011;3035;49.928;8.410;2023-08-01T12:54:25;2.47;;;1.50;;
6013;SDS011;3035;49.928;8.410;2023-08-01T12:56:54;3.40;;;1.57;;
6013;SDS011;3035;49.928;8.410;2023-08-01T12:59:22;3.17;;;1.63;;
6013;SDS011;3035;49.928;8.410;2023-08-01T13:01:50;2.50;;;1.20;;
6013;SDS011;3035;49.928;8.410;2023-08-01T13:04:18;3.87;;;1.30;;
6013;SDS011;3035;49.928;8.410;2023-08-01T13:06:46;3.90;;;1.93;;
6013;SDS011;3035;49.928;8.410;2023-08-01T13:09:15;3.13;;;1.60;;
6013;SDS011;3035;49.928;8.410;2023-08-01T13:11:43;2.93;;;1.60;;
6013;SDS011;3035;49.928;8.410;2023-08-01T13:14:11;3.60;;;1.30;;
6013;SDS011;3035;49.928;8.410;2023-08-01T13:16:39;2.60;;;1.60;;
6013;SDS011;3035;49.928;8.410;2023-08-01T13:19:07;4.60;;;1.83;;
6013;SDS011;3035;49.928;8.410;2023-08-01T13:21:36;3.60;;;1.50;;
6013;SDS011;3035;49.928;8.410;2023-08-01T13:24:04;3.13;;;1.33;;
6013;SDS011;3035;49.928;8.410;2023-08-01T13:26:32;3.43;;;1.70;;
6013;SDS011;3035;49.928;8.410;2023-08-01T13:29:00;6.87;;;1.30;;
6013;SDS011;3035;49.928;8.410;2023-08-01T13:31:28;3.60;;;1.70;;
6013;SDS011;3035;49.928;8.410;2023-08-01T13:33:57;2.40;;;1.50;;
6013;SDS011;3035;49.928;8.410;2023-08-01T13:36:25;5.27;;;1.40;;
6013;SDS011;3035;49.928;8.410;2023-08-01T13:38:53;2.43;;;1.57;;
6013;SDS011;3035;49.928;8.410;2023-08-01T13:41:21;2.83;;;1.67;;
6013;SDS011;3035;49.928;8.410;2023-08-01T13:43:50;2.40;;;1.30;;
6013;SDS011;3035;49.928;8.410;2023-08-01T13:46:18;6.93;;;1.80;;
6013;SDS011;3035;49.928;8.410;2023-08-01T13:48:47;2.83;;;1.43;;
6013;SDS011;3035;49.928;8.410;2023-08-01T13:51:15;4.20;;;1.50;;
6013;SDS011;3035;49.928;8.410;2023-08-01T13:53:43;3.03;;;1.60;;
6013;SDS011;3035;49.928;8.410;2023-08-01T13:56:12;2.33;;;1.40;;
6013;SDS011;3035;49.928;8.410;2023-08-01T13:58:40;5.90;;;1.60;;
6013;SDS011;3035;49.928;8.410;2023-08-01T14:01:09;3.20;;;1.77;;
6013;SDS011;3035;49.928;8.410;2023-08-01T14:03:37;5.10;;;1.97;;
6013;SDS011;3035;49.928;8.410;2023-08-01T14:06:05;7.47;;;1.60;;
6013;SDS011;3035;49.928;8.410;2023-08-01T14:08:33;3.33;;;1.50;;
6013;SDS011;3035;49.928;8.410;2023-08-01T14:11:02;2.63;;;1.63;;
6013;SDS011;3035;49.928;8.410;2023-08-01T14:13:31;8.67;;;2.20;;
6013;SDS011;3035;49.928;8.410;2023-08-01T14:15:59;4.77;;;1.83;;
6013;SDS011;3035;49.928;8.410;2023-08-01T14:18:27;3.97;;;1.70;;
6013;SDS011;3035;49.928;8.410;2023-08-01T14:20:55;2.13;;;1.43;;
6013;SDS011;3035;49.928;8.410;2023-08-01T14:23:23;2.50;;;1.80;;
6013;SDS011;3035;49.928;8.410;2023-08-01T14:25:51;5.33;;;1.70;;
6013;SDS011;3035;49.928;8.410;2023-08-01T14:28:20;4.93;;;1.90;;
6013;SDS011;3035;49.928;8.410;2023-08-01T14:30:48;7.47;;;2.13;;
6013;SDS011;3035;49.928;8.410;2023-08-01T14:33:16;6.73;;;1.70;;
6013;SDS011;3035;49.928;8.410;2023-08-01T14:35:44;2.87;;;1.80;;
6013;SDS011;3035;49.928;8.410;2023-08-01T14:38:12;7.27;;;2.27;;
6013;SDS011;3035;49.928;8.410;2023-08-01T14:40:41;7.13;;;2.07;;
6013;SDS011;3035;49.928;8.410;2023-08-01T14:43:09;3.10;;;2.00;;
6013;SDS011;3035;49.928;8.410;2023-08-01T14:45:37;16.67;;;1.93;;
6013;SDS011;3035;49.928;8.410;2023-08-01T14:48:07;2.10;;;1.37;;
6013;SDS011;3035;49.928;8.410;2023-08-01T14:50:34;10.70;;;1.50;;
6013;SDS011;3035;49.928;8.410;2023-08-01T14:53:03;3.90;;;1.40;;
6013;SDS011;3035;49.928;8.410;2023-08-01T14:55:31;3.03;;;1.67;;
6013;SDS011;3035;49.928;8.410;2023-08-01T14:57:59;3.43;;;1.30;;
6013;SDS011;3035;49.928;8.410;2023-08-01T15:00:27;2.83;;;1.67;;
6013;SDS011;3035;49.928;8.410;2023-08-01T15:02:55;2.73;;;1.80;;
6013;SDS011;3035;49.928;8.410;2023-08-01T15:05:24;8.83;;;1.70;;
6013;SDS011;3035;49.928;8.410;2023-08-01T15:07:52;2.77;;;1.60;;
6013;SDS011;3035;49.928;8.410;2023-08-01T15:10:20;6.73;;;1.77;;
6013;SDS011;3035;49.928;8.410;2023-08-01T15:12:49;5.43;;;1.83;;
6013;SDS011;3035;49.928;8.410;2023-08-01T15:15:17;2.80;;;1.43;;
6013;SDS011;3035;49.928;8.410;2023-08-01T15:17:46;7.20;;;1.80;;
6013;SDS011;3035;49.928;8.410;2023-08-01T15:20:15;2.20;;;1.80;;
6013;SDS011;3035;49.928;8.410;2023-08-01T15:22:44;2.83;;;1.63;;
6013;SDS011;3035;49.928;8.410;2023-08-01T15:25:13;7.17;;;1.93;;
6013;SDS011;3035;49.928;8.410;2023-08-01T15:27:42;3.53;;;1.83;;
6013;SDS011;3035;49.928;8.410;2023-08-01T15:30:11;3.50;;;1.97;;
6013;SDS011;3035;49.928;8.410;2023-08-01T15:32:40;4.20;;;2.10;;